North Platte, Nebraska
Current Conditions -  °F | °C
As of 12:53 PM on Friday 21 Nov 2014 (Local Time) from KLBF Reporting Station
Clear Clear  
Wind Chill: 43°   Ceiling: Unl
Heat Index: 48°   Visibility: 10mi
Dew Point: 29°   Wind: 10mph
Humidity: 48%   Direction: 180°S
Pressure: 29.95"   Gusts: NA
Location:  41.14°N, 100.76°W
Report Text: KLBF 211853Z AUTO 18009KT 10SM CLR 09/M02 A2995 RMK AO2 SLP161 T00891017 $
Loading
Personal Weather Stations






























Interactive Weather Map New forecast layout! Learn more

10-Day Weather Forecast

Advertisements
Track Severe Weather on mobile